Wanamingo, Minnesota
Current Conditions -  °F | °C
As of 7:14 AM on Thursday 27 Nov 2014 (Local Time) from KSYN Reporting Station
Clear Clear  
Wind Chill: -5°   Ceiling: Unl
Heat Index: -5°   Visibility: 10mi
Dew Point: -9°   Wind: 3mph
Humidity: 82%   Direction: 280°W
Pressure: 30.48"   Gusts: NA
Location:  44.3°N, 92.79°W
Report Text: KSYN 271314Z AUTO 28003KT 10SM CLR M21/M23 A3048 RMK AO2 T12061229
Loading
Personal Weather Stations






























Interactive Weather Map New forecast layout! Learn more

10-Day Weather Forecast

Advertisements
Track Severe Weather on mobile